Latchford, Canada
Current Conditions -  °F | °C
As of 5:00 AM on Wednesday 26 Nov 2014 (Local Time) from CYXR Reporting Station
Overcast Overcast  
Wind Chill: 18°   Ceiling: 3100
Heat Index: 18°   Visibility: 9mi
Dew Point: 14°   Wind: 2mph
Humidity: 86%   Direction: NA
Pressure: 30.2"   Gusts: NA
Location:  47.33°N, 79.8°W
Report Text: CYXR 261000Z AUTO VRB02KT 9SM OVC031 M08/M10 A3020 RMK SLP245
Loading
Personal Weather Stations






























Interactive Weather Map New forecast layout! Learn more

10-Day Weather Forecast

Advertisements
Track Severe Weather on mobile